Time;durP1;ratioP1;P1;durP2;ratioP2;P2;SDS_P1;SDS_P2;PMS_P1;PMS_P2;Temp;Humidity;BMP_temperature;BMP_pressure;BME280_temperature;BME280_humidity;BME280_pressure;Samples;Min_cycle;Max_cycle;Signal;HPM_P1;HPM_P2
2023/03/30 00:01:54;;;;;;;18.35;14.85;;;;;;;;;;5052918;28;20029;-76
2023/03/30 00:04:25;;;;;;;18.50;14.05;;;;;;;;;;5049246;28;20057;-76
2023/03/30 00:06:51;;;;;;;22.02;14.55;;;;;;;;;;5052564;28;20088;-76
2023/03/30 00:09:18;;;;;;;17.40;14.90;;;;;;;;;;5053552;28;20409;-75
2023/03/30 00:11:44;;;;;;;18.42;13.95;;;;;;;;;;5052814;28;20049;-76
2023/03/30 00:14:11;;;;;;;20.05;13.90;;;;;;;;;;5053236;28;20088;-76
2023/03/30 00:16:37;;;;;;;19.15;13.07;;;;;;;;;;5035964;28;20041;-76
2023/03/30 00:19:03;;;;;;;16.95;12.73;;;;;;;;;;5055544;28;20130;-76
2023/03/30 00:21:29;;;;;;;15.57;12.10;;;;;;;;;;5049603;28;20064;-75
2023/03/30 00:23:55;;;;;;;17.05;12.02;;;;;;;;;;5055304;28;20152;-76
2023/03/30 00:26:21;;;;;;;15.93;11.93;;;;;;;;;;5020874;28;20497;-76
2023/03/30 00:28:47;;;;;;;14.88;11.32;;;;;;;;;;5053822;28;20102;-75
2023/03/30 00:31:13;;;;;;;13.75;11.45;;;;;;;;;;5055369;28;20081;-76
2023/03/30 00:33:39;;;;;;;14.70;11.18;;;;;;;;;;5037180;28;20344;-76
2023/03/30 00:36:05;;;;;;;15.23;11.30;;;;;;;;;;5055186;28;20037;-75
2023/03/30 00:38:31;;;;;;;14.65;10.73;;;;;;;;;;5055203;28;20056;-76
2023/03/30 00:40:58;;;;;;;16.02;10.27;;;;;;;;;;5065073;28;20055;-76
2023/03/30 00:43:25;;;;;;;15.68;10.82;;;;;;;;;;5026410;28;20049;-76
2023/03/30 00:45:51;;;;;;;14.02;9.93;;;;;;;;;;5056002;28;20064;-75
2023/03/30 00:48:31;;;;;;;13.15;9.05;;;;;;;;;;5075356;28;20465;-76
2023/03/30 00:51:02;;;;;;;14.15;9.32;;;;;;;;;;5072700;28;20397;-76
2023/03/30 00:53:39;;;;;;;13.75;8.85;;;;;;;;;;5062730;28;20106;-76
2023/03/30 00:56:07;;;;;;;13.75;8.50;;;;;;;;;;5057203;28;20048;-76
2023/03/30 00:58:33;;;;;;;14.00;9.13;;;;;;;;;;5058574;28;20059;-76
2023/03/30 01:01:01;;;;;;;12.65;8.60;;;;;;;;;;5071601;28;20534;-76
2023/03/30 01:03:30;;;;;;;12.88;8.65;;;;;;;;;;5039226;28;20098;-76
2023/03/30 01:05:56;;;;;;;11.30;8.55;;;;;;;;;;5060129;28;20056;-76
2023/03/30 01:08:22;;;;;;;12.07;8.00;;;;;;;;;;5058530;28;20131;-76
2023/03/30 01:10:51;;;;;;;12.40;8.05;;;;;;;;;;5072298;28;20052;-76
2023/03/30 01:13:18;;;;;;;14.90;8.43;;;;;;;;;;5067253;28;20061;-76
2023/03/30 01:15:51;;;;;;;12.18;7.93;;;;;;;;;;5063136;28;20058;-75
2023/03/30 01:18:23;;;;;;;11.77;7.88;;;;;;;;;;5042347;28;20045;-76
2023/03/30 01:21:07;;;;;;;13.88;8.13;;;;;;;;;;5055700;28;20040;-76
2023/03/30 01:23:34;;;;;;;14.38;8.20;;;;;;;;;;5065031;28;20041;-76
2023/03/30 01:26:00;;;;;;;11.77;7.38;;;;;;;;;;5072752;28;20116;-76
2023/03/30 01:28:29;;;;;;;13.98;7.90;;;;;;;;;;5062566;28;20136;-75
2023/03/30 01:31:01;;;;;;;12.85;7.57;;;;;;;;;;5054189;28;20052;-76
2023/03/30 01:34:03;;;;;;;11.48;7.60;;;;;;;;;;5040788;28;20056;-76
2023/03/30 01:36:35;;;;;;;12.15;7.53;;;;;;;;;;5010075;28;20128;-76
2023/03/30 01:39:10;;;;;;;11.80;7.68;;;;;;;;;;5029921;28;20564;-76
2023/03/30 01:41:41;;;;;;;13.65;7.35;;;;;;;;;;5052637;28;20045;-76
2023/03/30 01:44:10;;;;;;;10.05;7.15;;;;;;;;;;5056677;28;20032;-76
2023/03/30 01:46:39;;;;;;;9.98;7.00;;;;;;;;;;5039251;28;20076;-76
2023/03/30 01:49:24;;;;;;;11.02;7.07;;;;;;;;;;5073990;28;20052;-76
2023/03/30 01:52:06;;;;;;;10.88;7.10;;;;;;;;;;5055963;28;20058;-73
2023/03/30 01:54:41;;;;;;;11.23;7.28;;;;;;;;;;5067100;28;20123;-76
2023/03/30 01:57:21;;;;;;;11.90;6.43;;;;;;;;;;5052082;28;20041;-76
2023/03/30 02:00:00;;;;;;;11.05;7.00;;;;;;;;;;5067021;28;20084;-76
2023/03/30 02:02:28;;;;;;;11.60;6.15;;;;;;;;;;5055581;28;20405;-76
2023/03/30 02:04:56;;;;;;;11.90;6.10;;;;;;;;;;5047495;28;20101;-76
2023/03/30 02:07:24;;;;;;;12.75;6.82;;;;;;;;;;5071997;28;20489;-75
2023/03/30 02:09:52;;;;;;;10.63;6.47;;;;;;;;;;5073014;28;20044;-76
2023/03/30 02:12:19;;;;;;;11.82;6.60;;;;;;;;;;5071628;28;20052;-76
2023/03/30 02:14:46;;;;;;;11.57;6.85;;;;;;;;;;5073215;28;20052;-76
2023/03/30 02:17:16;;;;;;;10.98;6.68;;;;;;;;;;5059262;28;20102;-75
2023/03/30 02:19:44;;;;;;;10.35;5.95;;;;;;;;;;5068910;28;20547;-76
2023/03/30 02:22:11;;;;;;;8.75;5.57;;;;;;;;;;5054913;28;20044;-75
2023/03/30 02:24:37;;;;;;;10.98;5.75;;;;;;;;;;5062973;28;20041;-76
2023/03/30 02:27:06;;;;;;;8.43;5.90;;;;;;;;;;5035329;28;20051;-76
2023/03/30 02:29:34;;;;;;;10.27;6.07;;;;;;;;;;5065289;28;20087;-76
2023/03/30 02:32:00;;;;;;;13.15;5.80;;;;;;;;;;5036350;28;20033;-76
2023/03/30 02:34:32;;;;;;;11.75;5.63;;;;;;;;;;5065868;28;20070;-75
2023/03/30 02:37:13;;;;;;;10.57;5.32;;;;;;;;;;5038251;28;20052;-76
2023/03/30 02:39:54;;;;;;;10.30;5.47;;;;;;;;;;5072805;28;20137;-76
2023/03/30 02:42:23;;;;;;;10.40;5.20;;;;;;;;;;5041717;28;20049;-76
2023/03/30 02:44:50;;;;;;;10.07;5.40;;;;;;;;;;5037731;28;20051;-76
2023/03/30 02:47:36;;;;;;;12.32;5.45;;;;;;;;;;5057979;28;20055;-76
2023/03/30 02:50:10;;;;;;;10.57;5.40;;;;;;;;;;5053153;28;20051;-76
2023/03/30 02:52:36;;;;;;;11.85;4.88;;;;;;;;;;5052665;28;20040;-76
2023/03/30 02:55:15;;;;;;;8.38;5.05;;;;;;;;;;5045017;28;20037;-76
2023/03/30 02:57:53;;;;;;;11.90;4.80;;;;;;;;;;5034735;28;20049;-76
2023/03/30 03:00:25;;;;;;;9.45;4.40;;;;;;;;;;5054028;28;20058;-76
2023/03/30 03:02:53;;;;;;;10.50;4.82;;;;;;;;;;5036990;28;20129;-76
2023/03/30 03:05:20;;;;;;;9.30;4.30;;;;;;;;;;5054291;28;20032;-76
2023/03/30 03:07:47;;;;;;;9.57;4.50;;;;;;;;;;5059904;28;20454;-76
2023/03/30 03:10:13;;;;;;;9.52;4.47;;;;;;;;;;5067597;28;20127;-76
2023/03/30 03:12:40;;;;;;;10.50;4.25;;;;;;;;;;5067670;28;20071;-76
2023/03/30 03:15:07;;;;;;;13.38;4.40;;;;;;;;;;5052532;28;20079;-76
2023/03/30 03:17:35;;;;;;;8.88;4.20;;;;;;;;;;5064363;28;20049;-76
2023/03/30 03:20:06;;;;;;;10.57;4.20;;;;;;;;;;5053390;28;20053;-76
2023/03/30 03:22:32;;;;;;;8.95;4.10;;;;;;;;;;5051139;28;20554;-76
2023/03/30 03:24:58;;;;;;;7.28;4.00;;;;;;;;;;5070957;28;20048;-76
2023/03/30 03:27:25;;;;;;;8.43;4.18;;;;;;;;;;5059092;28;20045;-76
2023/03/30 03:29:51;;;;;;;10.50;3.97;;;;;;;;;;5053859;28;20076;-76
2023/03/30 03:32:17;;;;;;;10.68;4.03;;;;;;;;;;5064692;28;20045;-76
2023/03/30 03:34:46;;;;;;;10.07;4.25;;;;;;;;;;5052041;28;20405;-76
2023/03/30 03:37:12;;;;;;;9.73;3.95;;;;;;;;;;5033677;28;20389;-76
2023/03/30 03:39:38;;;;;;;8.90;4.65;;;;;;;;;;5051497;28;20044;-75
2023/03/30 03:42:05;;;;;;;9.57;4.10;;;;;;;;;;5036119;28;20040;-76
2023/03/30 03:44:31;;;;;;;8.70;4.38;;;;;;;;;;5045996;28;20123;-76
2023/03/30 03:46:57;;;;;;;11.02;4.53;;;;;;;;;;5076423;28;20040;-76
2023/03/30 03:49:23;;;;;;;12.60;4.15;;;;;;;;;;5057970;28;20397;-76
2023/03/30 03:51:49;;;;;;;9.98;3.95;;;;;;;;;;5075934;28;20045;-76
2023/03/30 03:54:16;;;;;;;9.70;4.13;;;;;;;;;;5047636;28;20059;-76
2023/03/30 03:56:42;;;;;;;12.60;4.05;;;;;;;;;;5062529;28;20222;-76
2023/03/30 03:59:08;;;;;;;10.63;3.80;;;;;;;;;;5069725;28;20069;-76
2023/03/30 04:01:34;;;;;;;9.77;3.60;;;;;;;;;;5040134;28;20463;-75
2023/03/30 04:04:00;;;;;;;9.93;3.75;;;;;;;;;;5061514;28;20092;-76
2023/03/30 04:06:26;;;;;;;10.38;3.80;;;;;;;;;;5056451;28;20080;-76
2023/03/30 04:08:52;;;;;;;13.13;3.92;;;;;;;;;;5056245;28;20055;-76
2023/03/30 04:11:18;;;;;;;12.80;3.65;;;;;;;;;;5074461;28;20046;-76
2023/03/30 04:13:44;;;;;;;11.38;3.80;;;;;;;;;;5057538;28;20068;-76
2023/03/30 04:16:10;;;;;;;8.73;3.75;;;;;;;;;;5048057;28;20044;-76
2023/03/30 04:18:37;;;;;;;8.75;3.40;;;;;;;;;;5057026;28;20052;-76
2023/03/30 04:21:04;;;;;;;10.10;3.10;;;;;;;;;;5068416;28;20076;-76
2023/03/30 04:23:32;;;;;;;9.18;3.25;;;;;;;;;;5037489;28;20048;-76
2023/03/30 04:26:00;;;;;;;10.60;3.28;;;;;;;;;;5055162;28;20084;-75
2023/03/30 04:28:28;;;;;;;9.48;2.97;;;;;;;;;;5055166;28;20049;-76
2023/03/30 04:31:01;;;;;;;10.23;3.33;;;;;;;;;;5056315;28;20072;-76
2023/03/30 04:33:28;;;;;;;8.88;3.13;;;;;;;;;;5055771;28;20041;-76
2023/03/30 04:35:54;;;;;;;8.68;3.00;;;;;;;;;;5055364;28;20044;-76
2023/03/30 04:38:22;;;;;;;9.23;2.85;;;;;;;;;;5065893;28;20072;-76
2023/03/30 04:40:52;;;;;;;8.57;2.83;;;;;;;;;;5047900;28;20127;-76
2023/03/30 04:43:19;;;;;;;10.65;3.25;;;;;;;;;;5075063;28;20049;-76
2023/03/30 04:45:50;;;;;;;8.38;3.17;;;;;;;;;;5073395;28;20037;-77
2023/03/30 04:48:18;;;;;;;9.00;2.90;;;;;;;;;;5057421;28;20406;-76
2023/03/30 04:50:44;;;;;;;6.50;2.45;;;;;;;;;;5056332;28;20052;-76
2023/03/30 04:53:10;;;;;;;7.72;2.95;;;;;;;;;;5062413;28;20063;-76
2023/03/30 04:55:36;;;;;;;9.60;3.00;;;;;;;;;;5071511;28;20040;-76
2023/03/30 04:58:02;;;;;;;12.25;3.38;;;;;;;;;;5052079;28;20063;-76
2023/03/30 05:00:29;;;;;;;9.27;2.60;;;;;;;;;;5054883;28;20079;-76
2023/03/30 05:02:55;;;;;;;10.05;3.05;;;;;;;;;;5036947;28;20049;-74
2023/03/30 05:05:21;;;;;;;12.15;2.95;;;;;;;;;;5053627;28;20053;-74
2023/03/30 05:07:47;;;;;;;10.45;3.13;;;;;;;;;;5053694;28;20045;-75
2023/03/30 05:10:13;;;;;;;9.52;2.97;;;;;;;;;;5062394;28;20036;-74
2023/03/30 05:12:39;;;;;;;7.65;3.10;;;;;;;;;;5058256;28;20071;-75
2023/03/30 05:15:06;;;;;;;11.38;3.05;;;;;;;;;;5071981;28;20053;-74
2023/03/30 05:17:32;;;;;;;10.13;3.42;;;;;;;;;;5056551;28;20123;-74
2023/03/30 05:19:59;;;;;;;8.93;3.63;;;;;;;;;;5074229;28;20049;-74
2023/03/30 05:22:25;;;;;;;12.50;3.47;;;;;;;;;;5023537;28;20080;-74
2023/03/30 05:24:52;;;;;;;10.98;3.30;;;;;;;;;;5053772;28;20173;-74
2023/03/30 05:27:18;;;;;;;10.23;3.33;;;;;;;;;;5063333;28;20044;-74
2023/03/30 05:29:44;;;;;;;10.07;3.25;;;;;;;;;;5053862;28;20052;-74
2023/03/30 05:32:10;;;;;;;7.97;3.17;;;;;;;;;;5052592;28;20040;-74
2023/03/30 05:34:36;;;;;;;9.07;4.00;;;;;;;;;;5039267;28;20126;-74
2023/03/30 05:37:02;;;;;;;12.13;3.30;;;;;;;;;;5074220;28;20485;-74
2023/03/30 05:39:28;;;;;;;13.95;3.42;;;;;;;;;;5055719;28;20060;-74
2023/03/30 05:41:54;;;;;;;16.50;4.22;;;;;;;;;;5055896;28;20098;-74
2023/03/30 05:44:21;;;;;;;12.00;3.30;;;;;;;;;;5038930;28;20083;-74
2023/03/30 05:46:47;;;;;;;9.43;3.42;;;;;;;;;;5033564;28;20458;-72
2023/03/30 05:49:13;;;;;;;10.70;3.50;;;;;;;;;;5050952;28;20346;-74
2023/03/30 05:51:39;;;;;;;10.40;3.38;;;;;;;;;;5055026;28;20033;-74
2023/03/30 05:54:05;;;;;;;11.40;3.88;;;;;;;;;;5042660;28;20436;-75
2023/03/30 05:56:31;;;;;;;11.77;3.50;;;;;;;;;;5035097;28;20409;-74
2023/03/30 05:58:57;;;;;;;11.18;3.63;;;;;;;;;;5035554;28;20049;-74
2023/03/30 06:01:24;;;;;;;12.10;3.45;;;;;;;;;;5035196;28;20041;-74
2023/03/30 06:03:51;;;;;;;10.93;3.55;;;;;;;;;;5035188;28;20052;-76
2023/03/30 06:06:17;;;;;;;11.10;4.13;;;;;;;;;;5053012;28;20099;-74
2023/03/30 06:08:43;;;;;;;11.68;3.90;;;;;;;;;;5035631;28;20076;-76
2023/03/30 06:11:10;;;;;;;12.95;3.80;;;;;;;;;;5052998;28;20044;-74
2023/03/30 06:13:36;;;;;;;12.95;3.90;;;;;;;;;;5052803;28;20444;-74
2023/03/30 06:16:02;;;;;;;13.98;3.90;;;;;;;;;;5053005;28;20414;-77
2023/03/30 06:18:28;;;;;;;9.23;3.50;;;;;;;;;;5036381;28;20346;-74
2023/03/30 06:20:54;;;;;;;13.05;3.92;;;;;;;;;;5054716;28;20043;-75
2023/03/30 06:23:21;;;;;;;8.73;3.95;;;;;;;;;;5057976;28;20045;-75
2023/03/30 06:25:51;;;;;;;13.65;3.92;;;;;;;;;;5052595;28;20056;-75
2023/03/30 06:28:18;;;;;;;11.30;3.95;;;;;;;;;;5051735;28;20056;-75
2023/03/30 06:30:47;;;;;;;11.23;4.15;;;;;;;;;;5035017;28;20049;-76
2023/03/30 06:33:13;;;;;;;12.70;4.20;;;;;;;;;;5068962;28;20147;-75
2023/03/30 06:35:44;;;;;;;10.20;4.20;;;;;;;;;;5072301;28;20045;-74
2023/03/30 06:38:11;;;;;;;10.38;3.80;;;;;;;;;;5073065;28;20178;-75
2023/03/30 06:40:37;;;;;;;9.45;4.10;;;;;;;;;;5072375;28;20489;-75
2023/03/30 06:43:03;;;;;;;17.13;4.43;;;;;;;;;;5072628;28;20076;-75
2023/03/30 06:45:29;;;;;;;12.43;4.35;;;;;;;;;;5054296;28;20044;-76
2023/03/30 06:47:55;;;;;;;9.93;4.38;;;;;;;;;;5070830;28;20485;-76
2023/03/30 06:50:22;;;;;;;8.32;3.97;;;;;;;;;;5072613;28;20546;-76
2023/03/30 06:52:48;;;;;;;11.27;4.00;;;;;;;;;;5051768;28;20106;-74
2023/03/30 06:55:14;;;;;;;9.57;3.72;;;;;;;;;;5054404;28;20045;-76
2023/03/30 06:57:40;;;;;;;11.93;3.88;;;;;;;;;;5052575;28;20045;-76
2023/03/30 07:00:13;;;;;;;12.38;4.47;;;;;;;;;;5062551;28;20053;-76
2023/03/30 07:02:43;;;;;;;10.85;4.10;;;;;;;;;;5054647;28;20045;-76
2023/03/30 07:05:09;;;;;;;10.27;3.75;;;;;;;;;;5072385;28;20053;-76
2023/03/30 07:07:36;;;;;;;12.35;4.18;;;;;;;;;;5072548;28;20118;-77
2023/03/30 07:10:09;;;;;;;13.13;4.25;;;;;;;;;;5050688;28;20111;-76
2023/03/30 07:12:37;;;;;;;11.65;3.67;;;;;;;;;;5068583;28;20151;-75
2023/03/30 07:15:05;;;;;;;13.80;3.75;;;;;;;;;;5070542;28;20049;-75
2023/03/30 07:17:32;;;;;;;15.57;3.92;;;;;;;;;;5063248;28;20033;-75
2023/03/30 07:19:58;;;;;;;15.55;3.50;;;;;;;;;;5049644;28;20049;-75
2023/03/30 07:22:24;;;;;;;15.15;3.17;;;;;;;;;;5049122;28;20136;-75
2023/03/30 07:24:50;;;;;;;12.35;2.97;;;;;;;;;;5067033;28;20076;-75
2023/03/30 07:27:16;;;;;;;15.35;3.58;;;;;;;;;;5068858;28;20083;-75
2023/03/30 07:29:42;;;;;;;16.38;4.00;;;;;;;;;;5051588;28;20048;-75
2023/03/30 07:32:08;;;;;;;15.63;3.65;;;;;;;;;;5052119;28;20067;-75
2023/03/30 07:34:34;;;;;;;18.38;3.50;;;;;;;;;;5066696;28;20044;-75
2023/03/30 07:37:00;;;;;;;12.40;2.97;;;;;;;;;;5067430;28;20041;-75
2023/03/30 07:39:26;;;;;;;17.25;3.55;;;;;;;;;;5065246;28;20048;-75
2023/03/30 07:41:53;;;;;;;14.35;3.10;;;;;;;;;;5067156;28;20102;-75
2023/03/30 07:44:19;;;;;;;12.48;3.28;;;;;;;;;;5067379;28;20095;-75
2023/03/30 07:46:45;;;;;;;14.07;3.42;;;;;;;;;;5034991;28;20095;-74
2023/03/30 07:49:11;;;;;;;13.68;3.38;;;;;;;;;;5060238;28;20044;-75
2023/03/30 07:51:38;;;;;;;17.98;3.63;;;;;;;;;;5038042;28;20080;-74
2023/03/30 07:54:05;;;;;;;17.20;3.60;;;;;;;;;;5052735;28;20048;-75
2023/03/30 07:56:32;;;;;;;16.90;3.80;;;;;;;;;;5053576;28;20066;-76
2023/03/30 07:58:58;;;;;;;16.95;3.97;;;;;;;;;;5053471;28;20110;-73
2023/03/30 08:01:24;;;;;;;16.30;3.90;;;;;;;;;;5053451;28;20083;-73
2023/03/30 08:03:50;;;;;;;19.83;3.60;;;;;;;;;;5052632;28;20048;-74
2023/03/30 08:06:16;;;;;;;15.75;3.88;;;;;;;;;;5052815;28;20127;-76
2023/03/30 08:08:42;;;;;;;19.92;4.25;;;;;;;;;;5071417;28;20374;-75
2023/03/30 08:11:09;;;;;;;24.52;4.65;;;;;;;;;;5053183;28;20143;-75
2023/03/30 08:13:36;;;;;;;19.42;4.47;;;;;;;;;;5071914;28;20090;-76
2023/03/30 08:16:02;;;;;;;19.35;4.43;;;;;;;;;;5072123;28;20512;-76
2023/03/30 08:18:28;;;;;;;19.83;4.75;;;;;;;;;;5037432;28;20053;-76
2023/03/30 08:20:55;;;;;;;16.27;3.75;;;;;;;;;;5070762;28;20447;-76
2023/03/30 08:23:21;;;;;;;19.27;4.40;;;;;;;;;;5032848;28;20436;-76
2023/03/30 08:25:51;;;;;;;24.75;4.68;;;;;;;;;;5060092;28;20041;-75
2023/03/30 08:28:17;;;;;;;24.88;4.47;;;;;;;;;;5052678;28;20096;-75
2023/03/30 08:30:43;;;;;;;15.50;4.32;;;;;;;;;;5055092;28;20056;-76
2023/03/30 08:33:09;;;;;;;19.00;4.30;;;;;;;;;;5067907;28;20159;-76
2023/03/30 08:35:35;;;;;;;19.73;4.72;;;;;;;;;;5064017;28;20127;-75
2023/03/30 08:38:01;;;;;;;23.20;4.68;;;;;;;;;;5040007;28;20517;-75
2023/03/30 08:40:27;;;;;;;22.17;5.13;;;;;;;;;;5058326;28;20123;-75
2023/03/30 08:43:03;;;;;;;20.60;4.63;;;;;;;;;;5040272;28;20063;-75
2023/03/30 08:45:37;;;;;;;20.35;4.80;;;;;;;;;;5057069;28;20044;-76
2023/03/30 08:48:05;;;;;;;24.70;5.07;;;;;;;;;;5075157;28;20044;-76
2023/03/30 08:50:31;;;;;;;24.17;4.53;;;;;;;;;;5073645;28;20049;-75
2023/03/30 08:52:57;;;;;;;21.13;5.13;;;;;;;;;;5056417;28;20119;-75
2023/03/30 08:55:29;;;;;;;25.92;5.20;;;;;;;;;;5064346;28;20056;-76
2023/03/30 08:57:55;;;;;;;24.83;5.40;;;;;;;;;;5052323;28;20087;-76
2023/03/30 09:00:28;;;;;;;25.55;5.00;;;;;;;;;;5070462;28;20493;-76
2023/03/30 09:03:00;;;;;;;26.90;4.80;;;;;;;;;;5047565;28;20341;-76
2023/03/30 09:05:26;;;;;;;22.65;5.18;;;;;;;;;;5033433;28;20087;-76
2023/03/30 09:08:00;;;;;;;23.00;4.85;;;;;;;;;;5050194;28;20457;-76
2023/03/30 09:10:28;;;;;;;23.65;5.22;;;;;;;;;;5050834;28;20466;-75
2023/03/30 09:12:57;;;;;;;25.25;4.90;;;;;;;;;;5033275;28;20057;-76
2023/03/30 09:15:28;;;;;;;27.15;5.03;;;;;;;;;;5044387;28;20477;-76
2023/03/30 09:18:14;;;;;;;18.48;4.97;;;;;;;;;;5057458;28;20135;-76
2023/03/30 09:20:41;;;;;;;22.50;4.82;;;;;;;;;;5053316;28;20090;-76
2023/03/30 09:23:15;;;;;;;23.55;4.55;;;;;;;;;;5055025;28;20124;-76
2023/03/30 09:25:50;;;;;;;24.40;4.68;;;;;;;;;;5058049;28;20136;-76
2023/03/30 09:28:22;;;;;;;19.83;5.13;;;;;;;;;;5054138;28;20417;-76
2023/03/30 09:30:51;;;;;;;19.08;4.22;;;;;;;;;;5055203;28;20049;-76
2023/03/30 09:33:31;;;;;;;19.92;4.55;;;;;;;;;;5053987;28;20069;-76
2023/03/30 09:36:08;;;;;;;20.42;3.92;;;;;;;;;;5054816;28;20076;-76
2023/03/30 09:38:36;;;;;;;15.45;3.80;;;;;;;;;;5054584;28;20052;-77
2023/03/30 09:41:06;;;;;;;19.45;4.53;;;;;;;;;;5072965;28;20055;-77
2023/03/30 09:43:36;;;;;;;18.08;3.78;;;;;;;;;;5054750;28;20098;-77
2023/03/30 09:46:05;;;;;;;20.83;4.10;;;;;;;;;;5055770;28;20133;-76
2023/03/30 09:48:38;;;;;;;20.92;4.10;;;;;;;;;;5039055;28;20037;-75
2023/03/30 09:51:13;;;;;;;18.48;3.72;;;;;;;;;;5073501;28;20516;-75
2023/03/30 09:53:41;;;;;;;18.88;3.85;;;;;;;;;;5051925;28;20041;-74
2023/03/30 09:56:10;;;;;;;14.02;3.53;;;;;;;;;;5035359;28;20049;-74
2023/03/30 09:58:36;;;;;;;19.42;3.67;;;;;;;;;;5053735;28;20041;-74
2023/03/30 10:01:12;;;;;;;14.40;3.45;;;;;;;;;;5052588;28;20056;-75
2023/03/30 10:03:39;;;;;;;18.95;3.55;;;;;;;;;;5052850;28;20447;-75
2023/03/30 10:06:18;;;;;;;20.52;3.50;;;;;;;;;;5052674;28;20048;-74
2023/03/30 10:08:57;;;;;;;20.13;3.92;;;;;;;;;;5053080;28;20219;-74
2023/03/30 10:11:35;;;;;;;16.63;3.70;;;;;;;;;;5035299;28;20513;-75
2023/03/30 10:14:01;;;;;;;16.35;3.67;;;;;;;;;;5053128;28;20080;-77
2023/03/30 10:16:31;;;;;;;17.10;4.00;;;;;;;;;;5052957;28;20049;-76
2023/03/30 10:19:16;;;;;;;19.27;3.92;;;;;;;;;;5053029;28;20072;-75
2023/03/30 10:21:45;;;;;;;15.23;3.38;;;;;;;;;;5035431;28;20346;-75
2023/03/30 10:24:23;;;;;;;16.15;3.45;;;;;;;;;;5034830;28;20049;-76
2023/03/30 10:26:54;;;;;;;14.75;3.33;;;;;;;;;;5018755;28;20048;-76
2023/03/30 10:29:22;;;;;;;12.65;3.03;;;;;;;;;;5034767;28;20059;-76
2023/03/30 10:31:50;;;;;;;15.43;3.10;;;;;;;;;;5034780;28;20041;-76
2023/03/30 10:34:42;;;;;;;15.18;3.80;;;;;;;;;;5034614;28;20122;-76
2023/03/30 10:37:14;;;;;;;16.88;3.38;;;;;;;;;;5012627;28;20057;-76
2023/03/30 10:39:41;;;;;;;15.63;3.50;;;;;;;;;;5018226;28;20072;-76
2023/03/30 10:42:09;;;;;;;15.98;3.38;;;;;;;;;;5052547;28;20041;-76
2023/03/30 10:44:40;;;;;;;16.10;3.70;;;;;;;;;;5052696;28;20045;-76
2023/03/30 10:47:14;;;;;;;22.20;4.00;;;;;;;;;;5034824;28;20045;-76
2023/03/30 10:49:55;;;;;;;15.85;3.90;;;;;;;;;;5018101;28;20048;-76
2023/03/30 10:52:21;;;;;;;20.92;4.05;;;;;;;;;;5051630;28;20051;-76
2023/03/30 10:54:54;;;;;;;18.23;4.15;;;;;;;;;;5051756;28;20124;-76
2023/03/30 10:57:21;;;;;;;20.30;4.10;;;;;;;;;;5034863;28;20405;-76
2023/03/30 10:59:52;;;;;;;18.50;3.60;;;;;;;;;;5032577;28;20041;-76
2023/03/30 11:02:24;;;;;;;16.80;4.10;;;;;;;;;;5034254;28;20049;-76
2023/03/30 11:04:57;;;;;;;16.42;4.00;;;;;;;;;;5033962;28;20074;-76
2023/03/30 11:07:29;;;;;;;21.05;3.78;;;;;;;;;;5018354;28;20045;-76
2023/03/30 11:09:58;;;;;;;21.45;3.80;;;;;;;;;;5052332;28;20084;-76
2023/03/30 11:12:25;;;;;;;21.75;4.25;;;;;;;;;;5034310;28;20049;-76
2023/03/30 11:15:00;;;;;;;22.27;4.43;;;;;;;;;;5034082;28;20056;-76
2023/03/30 11:17:31;;;;;;;19.02;4.32;;;;;;;;;;5034448;28;20052;-76
2023/03/30 11:19:59;;;;;;;22.75;4.70;;;;;;;;;;5034005;28;20041;-76
2023/03/30 11:22:44;;;;;;;24.08;4.47;;;;;;;;;;5034280;28;20049;-76
2023/03/30 11:25:21;;;;;;;23.40;4.68;;;;;;;;;;5033497;28;20095;-76
2023/03/30 11:28:07;;;;;;;21.42;4.45;;;;;;;;;;5051891;28;20041;-76
2023/03/30 11:30:35;;;;;;;17.73;4.13;;;;;;;;;;5023576;28;20053;-76
2023/03/30 11:33:19;;;;;;;20.27;4.38;;;;;;;;;;5032532;28;20087;-76
2023/03/30 11:35:45;;;;;;;15.55;3.78;;;;;;;;;;5051855;28;20375;-76
2023/03/30 11:38:38;;;;;;;17.27;3.70;;;;;;;;;;5051807;28;20087;-76
2023/03/30 11:41:09;;;;;;;19.15;3.70;;;;;;;;;;5009820;28;20056;-77
2023/03/30 11:43:35;;;;;;;19.77;3.97;;;;;;;;;;5051594;28;20056;-76
2023/03/30 11:46:06;;;;;;;18.42;3.90;;;;;;;;;;5051807;28;20478;-76
2023/03/30 11:48:50;;;;;;;19.75;4.28;;;;;;;;;;5051798;28;20170;-76
2023/03/30 11:51:35;;;;;;;20.17;4.45;;;;;;;;;;5051418;28;20154;-76
2023/03/30 11:54:20;;;;;;;20.98;4.03;;;;;;;;;;5033545;28;20051;-76
2023/03/30 11:56:51;;;;;;;15.90;3.70;;;;;;;;;;5051772;28;20075;-76
2023/03/30 11:59:26;;;;;;;25.58;3.95;;;;;;;;;;5049237;28;20045;-76
2023/03/30 12:02:19;;;;;;;19.15;4.15;;;;;;;;;;5051023;28;20071;-76
2023/03/30 12:04:54;;;;;;;20.08;4.18;;;;;;;;;;5024710;28;20110;-75
2023/03/30 12:07:30;;;;;;;20.58;5.03;;;;;;;;;;5037006;28;20613;-76
2023/03/30 12:09:58;;;;;;;19.92;3.83;;;;;;;;;;5020596;28;20401;-77
2023/03/30 12:12:35;;;;;;;17.80;4.45;;;;;;;;;;5055192;28;20045;-77
2023/03/30 12:15:21;;;;;;;19.10;4.22;;;;;;;;;;5037373;28;20084;-77
2023/03/30 12:17:47;;;;;;;18.13;4.00;;;;;;;;;;5037319;28;20044;-77
2023/03/30 12:20:19;;;;;;;18.90;4.55;;;;;;;;;;5055258;28;20140;-77
2023/03/30 12:23:11;;;;;;;19.88;4.28;;;;;;;;;;5037126;28;20048;-77
2023/03/30 12:25:37;;;;;;;16.15;3.80;;;;;;;;;;5014751;28;20119;-77
2023/03/30 12:28:11;;;;;;;19.33;3.92;;;;;;;;;;5055613;28;20045;-77
2023/03/30 12:31:03;;;;;;;21.15;4.15;;;;;;;;;;5036730;28;20114;-75
2023/03/30 12:33:43;;;;;;;17.08;3.85;;;;;;;;;;5033998;28;20085;-77
2023/03/30 12:36:32;;;;;;;20.42;4.40;;;;;;;;;;5037444;28;20136;-77
2023/03/30 12:39:04;;;;;;;21.17;3.85;;;;;;;;;;5037246;28;20049;-77
2023/03/30 12:41:40;;;;;;;20.00;4.05;;;;;;;;;;5037235;28;20048;-77
2023/03/30 12:44:24;;;;;;;16.40;3.60;;;;;;;;;;5054855;28;20057;-77
2023/03/30 12:47:09;;;;;;;17.77;3.67;;;;;;;;;;5054861;28;20444;-77
2023/03/30 12:49:41;;;;;;;16.73;4.07;;;;;;;;;;5036312;28;20049;-77
2023/03/30 12:52:12;;;;;;;17.15;4.00;;;;;;;;;;5054851;28;20049;-77
2023/03/30 12:54:53;;;;;;;14.30;3.78;;;;;;;;;;5045271;28;20382;-77
2023/03/30 12:57:21;;;;;;;17.63;4.45;;;;;;;;;;5055212;28;20037;-77
2023/03/30 12:59:50;;;;;;;20.08;3.83;;;;;;;;;;5036752;28;20557;-77
2023/03/30 13:02:16;;;;;;;20.13;4.22;;;;;;;;;;5054627;28;20098;-75
2023/03/30 13:04:45;;;;;;;19.08;3.80;;;;;;;;;;5036120;28;20501;-78
2023/03/30 13:07:33;;;;;;;18.35;3.88;;;;;;;;;;5053052;28;20043;-75
2023/03/30 13:10:01;;;;;;;20.70;4.28;;;;;;;;;;5054097;28;20049;-75
2023/03/30 13:12:27;;;;;;;21.23;4.22;;;;;;;;;;5036169;28;20084;-76
2023/03/30 13:15:05;;;;;;;20.35;4.10;;;;;;;;;;5035118;28;20358;-77
2023/03/30 13:17:49;;;;;;;18.15;4.22;;;;;;;;;;5054376;28;20080;-76
2023/03/30 13:20:17;;;;;;;21.15;4.55;;;;;;;;;;5054197;28;20123;-76
2023/03/30 13:23:00;;;;;;;20.92;4.10;;;;;;;;;;5035307;28;20067;-76
2023/03/30 13:25:26;;;;;;;15.98;4.38;;;;;;;;;;5052673;28;20366;-76
2023/03/30 13:27:56;;;;;;;23.38;4.97;;;;;;;;;;5036461;28;20454;-76
2023/03/30 13:30:27;;;;;;;21.45;3.97;;;;;;;;;;5053782;28;20493;-76
2023/03/30 13:32:59;;;;;;;20.20;4.57;;;;;;;;;;5053825;28;20091;-76
2023/03/30 13:35:31;;;;;;;26.30;4.82;;;;;;;;;;5035735;28;20045;-76
2023/03/30 13:37:57;;;;;;;18.50;4.07;;;;;;;;;;5053969;28;20041;-77
2023/03/30 13:40:42;;;;;;;22.02;4.45;;;;;;;;;;5036010;28;20135;-76
2023/03/30 13:43:11;;;;;;;17.73;4.07;;;;;;;;;;5053492;28;20037;-76
2023/03/30 13:45:54;;;;;;;20.55;4.57;;;;;;;;;;5035575;28;20044;-76
2023/03/30 13:48:20;;;;;;;23.63;4.70;;;;;;;;;;5035781;28;20159;-77
2023/03/30 13:50:50;;;;;;;22.65;4.30;;;;;;;;;;5053432;28;20053;-76
2023/03/30 13:53:17;;;;;;;22.52;4.95;;;;;;;;;;5036141;28;20048;-76
2023/03/30 13:55:44;;;;;;;21.02;4.22;;;;;;;;;;5073514;28;20054;-76
2023/03/30 13:58:15;;;;;;;17.35;4.20;;;;;;;;;;5039681;28;20048;-77
2023/03/30 14:00:53;;;;;;;20.70;4.25;;;;;;;;;;5073691;28;20044;-76
2023/03/30 14:03:26;;;;;;;20.05;4.65;;;;;;;;;;5073935;28;20056;-76
2023/03/30 14:05:53;;;;;;;19.45;4.55;;;;;;;;;;5053333;28;20435;-77
2023/03/30 14:08:19;;;;;;;19.60;4.68;;;;;;;;;;5055280;28;20171;-74
2023/03/30 14:10:52;;;;;;;22.25;4.47;;;;;;;;;;5073306;28;20045;-75
2023/03/30 14:13:18;;;;;;;20.60;4.70;;;;;;;;;;5054360;28;20246;-75
2023/03/30 14:15:44;;;;;;;22.88;4.30;;;;;;;;;;5054710;28;20507;-74
2023/03/30 14:18:13;;;;;;;21.08;4.65;;;;;;;;;;5054857;28;20114;-75
2023/03/30 14:20:39;;;;;;;20.38;4.13;;;;;;;;;;5054804;28;20048;-74
2023/03/30 14:23:06;;;;;;;21.55;4.30;;;;;;;;;;5072904;28;20045;-75
2023/03/30 14:25:35;;;;;;;14.57;3.72;;;;;;;;;;5054640;28;20052;-75
2023/03/30 14:28:13;;;;;;;22.33;4.63;;;;;;;;;;5072496;28;20044;-74
2023/03/30 14:30:47;;;;;;;23.83;4.60;;;;;;;;;;5053845;28;20542;-77
2023/03/30 14:33:13;;;;;;;18.55;4.03;;;;;;;;;;5072569;28;20048;-75
2023/03/30 14:35:41;;;;;;;18.52;4.72;;;;;;;;;;5071046;28;20040;-75
2023/03/30 14:38:11;;;;;;;19.98;4.28;;;;;;;;;;5054571;28;20040;-75
2023/03/30 14:40:39;;;;;;;15.18;4.00;;;;;;;;;;5037888;28;20159;-75
2023/03/30 14:43:06;;;;;;;23.88;4.70;;;;;;;;;;5072500;28;20419;-75
2023/03/30 14:45:32;;;;;;;18.30;4.25;;;;;;;;;;5072271;28;20377;-75
2023/03/30 14:47:59;;;;;;;19.30;4.43;;;;;;;;;;5054819;28;20469;-76